Time;durP1;ratioP1;P1;durP2;ratioP2;P2;SDS_P1;SDS_P2;PMS_P1;PMS_P2;Temp;Humidity;BMP_temperature;BMP_pressure;BME280_temperature;BME280_humidity;BME280_pressure;Samples;Min_cycle;Max_cycle;Signal;HPM_P1;HPM_P2
2022/01/05 00:02:20;;;;;;;0.10;0.10;;;5.70;99.90;;;;;;4929130;29;20663;-67
2022/01/05 00:04:47;;;;;;;0.10;0.10;;;5.70;99.90;;;;;;4929394;29;20655;-67
2022/01/05 00:07:14;;;;;;;0.10;0.10;;;5.70;99.90;;;;;;4934260;28;20711;-66
2022/01/05 00:09:42;;;;;;;0.10;0.10;;;5.70;99.90;;;;;;4929097;29;21172;-66
2022/01/05 00:12:10;;;;;;;0.10;0.10;;;5.60;99.90;;;;;;4930510;28;20725;-67
2022/01/05 00:14:37;;;;;;;0.10;0.10;;;5.60;99.90;;;;;;4932339;28;20638;-67
2022/01/05 00:17:05;;;;;;;0.10;0.10;;;5.60;99.90;;;;;;4922355;29;20627;-67
2022/01/05 00:19:34;;;;;;;0.10;0.10;;;5.60;99.90;;;;;;4928424;29;20626;-67
2022/01/05 00:22:01;;;;;;;0.10;0.10;;;;;;;;;;4928018;29;20737;-67
2022/01/05 00:24:28;;;;;;;0.10;0.10;;;;;;;;;;4929809;29;20753;-67
2022/01/05 00:26:57;;;;;;;0.10;0.10;;;;;;;;;;4927103;29;20670;-67
2022/01/05 00:29:24;;;;;;;0.10;0.10;;;;;;;;;;4928473;29;20635;-67
2022/01/05 00:31:51;;;;;;;0.10;0.10;;;5.50;99.90;;;;;;4925660;29;20669;-67
2022/01/05 00:34:18;;;;;;;0.10;0.10;;;5.50;99.90;;;;;;4920663;29;20631;-67
2022/01/05 00:36:46;;;;;;;0.10;0.10;;;5.50;99.90;;;;;;4929715;29;20650;-67
2022/01/05 00:39:13;;;;;;;0.10;0.10;;;5.50;99.90;;;;;;4927081;29;20686;-67
2022/01/05 00:41:41;;;;;;;0.10;0.10;;;5.50;99.90;;;;;;4927289;29;20667;-67
2022/01/05 00:44:08;;;;;;;0.10;0.10;;;5.50;99.90;;;;;;4930543;29;20718;-67
2022/01/05 00:46:35;;;;;;;0.10;0.10;;;5.50;99.90;;;;;;4930074;29;20647;-68
2022/01/05 00:49:02;;;;;;;0.10;0.10;;;5.50;99.90;;;;;;4927959;29;20635;-67
2022/01/05 00:51:29;;;;;;;0.10;0.10;;;5.50;99.90;;;;;;4928015;29;20651;-67
2022/01/05 00:53:57;;;;;;;0.10;0.10;;;5.50;99.90;;;;;;4925908;29;20635;-67
2022/01/05 00:56:24;;;;;;;0.10;0.10;;;5.50;99.90;;;;;;4929523;29;21152;-67
2022/01/05 00:58:52;;;;;;;0.10;0.10;;;;;;;;;;4925698;29;20635;-68
2022/01/05 01:01:19;;;;;;;0.10;0.10;;;;;;;;;;4927243;29;20722;-68
2022/01/05 01:03:46;;;;;;;0.10;0.10;;;;;;;;;;4924604;29;20631;-67
2022/01/05 01:06:13;;;;;;;0.10;0.10;;;;;;;;;;4924859;29;20758;-67
2022/01/05 01:08:40;;;;;;;0.10;0.10;;;;;;;;;;4930417;29;20627;-68
2022/01/05 01:11:09;;;;;;;0.10;0.10;;;;;;;;;;4926844;29;20665;-68
2022/01/05 01:13:36;;;;;;;0.10;0.10;;;;;;;;;;4927933;29;20607;-68
2022/01/05 01:16:04;;;;;;;0.10;0.10;;;;;;;;;;4925723;29;20651;-67
2022/01/05 01:18:33;;;;;;;0.10;0.10;;;;;;;;;;4925518;29;21200;-67
2022/01/05 01:21:00;;;;;;;0.10;0.10;;;;;;;;;;4926525;29;20658;-67
2022/01/05 01:23:27;;;;;;;0.10;0.10;;;;;;;;;;4926334;29;20630;-68
2022/01/05 01:25:55;;;;;;;0.10;0.10;;;;;;;;;;4928530;29;20671;-67
2022/01/05 01:28:24;;;;;;;0.10;0.10;;;;;;;;;;4926660;29;20663;-67
2022/01/05 01:30:51;;;;;;;0.10;0.10;;;;;;;;;;4928504;29;20626;-68
2022/01/05 01:33:19;;;;;;;0.10;0.10;;;;;;;;;;4927509;29;20620;-67
2022/01/05 01:35:46;;;;;;;0.10;0.10;;;;;;;;;;4925128;29;20658;-67
2022/01/05 01:38:14;;;;;;;0.10;0.10;;;5.40;99.90;;;;;;4925097;29;21440;-67
2022/01/05 01:40:41;;;;;;;0.03;0.03;;;5.30;99.90;;;;;;4928083;29;20622;-67
2022/01/05 01:43:08;;;;;;;0.10;0.10;;;5.30;99.90;;;;;;4928870;29;20693;-67
2022/01/05 01:45:37;;;;;;;0.10;0.10;;;5.30;99.90;;;;;;4927390;29;20773;-69
2022/01/05 01:48:05;;;;;;;0.10;0.10;;;5.30;99.90;;;;;;4920457;29;20683;-67
2022/01/05 01:50:32;;;;;;;0.10;0.10;;;5.30;99.90;;;;;;4925137;29;21011;-67
2022/01/05 01:52:59;;;;;;;0.00;0.00;;;5.30;99.90;;;;;;4924783;29;21139;-67
2022/01/05 01:55:26;;;;;;;0.10;0.10;;;5.30;99.90;;;;;;4926214;29;20777;-67
2022/01/05 01:57:54;;;;;;;0.10;0.10;;;;;;;;;;4922537;29;20642;-67
2022/01/05 02:00:22;;;;;;;0.10;0.10;;;;;;;;;;4922672;29;20623;-67
2022/01/05 02:02:52;;;;;;;0.10;0.10;;;;;;;;;;4922862;29;20770;-67
2022/01/05 02:05:22;;;;;;;0.10;0.10;;;;;;;;;;4927571;28;20656;-67
2022/01/05 02:07:49;;;;;;;0.10;0.10;;;;;;;;;;4927147;29;20698;-67
2022/01/05 02:10:17;;;;;;;0.10;0.10;;;5.20;99.90;;;;;;4927073;29;20626;-68
2022/01/05 02:12:44;;;;;;;0.10;0.10;;;5.20;99.90;;;;;;4926578;29;20658;-67
2022/01/05 02:15:11;;;;;;;0.10;0.10;;;5.20;99.90;;;;;;4929567;29;20627;-67
2022/01/05 02:17:52;;;;;;;0.10;0.10;;;5.20;99.90;;;;;;4928248;29;20659;-68
2022/01/05 02:20:22;;;;;;;0.10;0.10;;;5.20;99.90;;;;;;4924867;29;20611;-67
2022/01/05 02:22:51;;;;;;;0.10;0.10;;;5.20;99.90;;;;;;4926627;29;20753;-66
2022/01/05 02:25:18;;;;;;;0.10;0.10;;;5.30;99.90;;;;;;4925228;29;20650;-67
2022/01/05 02:27:48;;;;;;;0.10;0.10;;;5.20;99.90;;;;;;4922676;29;20634;-67
2022/01/05 02:30:20;;;;;;;0.10;0.10;;;5.20;99.90;;;;;;4923438;29;20623;-67
2022/01/05 02:32:47;;;;;;;0.10;0.10;;;5.20;99.90;;;;;;4937589;28;20672;-67
2022/01/05 02:35:14;;;;;;;0.10;0.10;;;5.20;99.90;;;;;;4931569;29;20623;-67
2022/01/05 02:37:42;;;;;;;0.10;0.10;;;5.20;99.90;;;;;;4929980;29;20634;-67
2022/01/05 02:40:13;;;;;;;0.10;0.10;;;5.20;99.90;;;;;;4929146;29;20703;-68
2022/01/05 02:42:40;;;;;;;0.10;0.10;;;5.20;99.90;;;;;;4930174;29;20665;-67
2022/01/05 02:45:09;;;;;;;0.10;0.10;;;5.20;99.90;;;;;;4928679;29;20663;-67
2022/01/05 02:47:36;;;;;;;0.10;0.10;;;5.20;99.90;;;;;;4932137;28;20610;-67
2022/01/05 02:50:05;;;;;;;0.10;0.10;;;5.20;99.90;;;;;;4931172;29;20687;-67
2022/01/05 02:52:33;;;;;;;0.10;0.10;;;5.20;99.90;;;;;;4930772;29;20681;-67
2022/01/05 02:55:00;;;;;;;0.10;0.10;;;5.20;99.90;;;;;;4945687;28;20714;-67
2022/01/05 02:57:29;;;;;;;0.10;0.10;;;5.20;99.90;;;;;;4923971;29;20627;-67
2022/01/05 02:59:56;;;;;;;0.10;0.10;;;5.20;99.90;;;;;;4927716;29;20639;-67
2022/01/05 03:02:23;;;;;;;0.10;0.10;;;5.20;99.90;;;;;;4925355;29;21247;-67
2022/01/05 03:04:50;;;;;;;0.10;0.10;;;5.10;99.90;;;;;;4929521;29;20614;-67
2022/01/05 03:07:17;;;;;;;0.10;0.10;;;5.10;99.90;;;;;;4930415;29;20614;-67
2022/01/05 03:09:45;;;;;;;0.10;0.10;;;5.10;99.90;;;;;;4929342;29;20638;-67
2022/01/05 03:12:13;;;;;;;0.10;0.10;;;5.10;99.90;;;;;;4929211;29;20686;-67
2022/01/05 03:14:41;;;;;;;0.10;0.10;;;5.10;99.90;;;;;;4929636;29;20634;-67
2022/01/05 03:17:08;;;;;;;0.10;0.10;;;5.10;99.90;;;;;;4928414;29;20631;-67
2022/01/05 03:19:36;;;;;;;0.10;0.10;;;5.10;99.90;;;;;;4930617;29;20690;-67
2022/01/05 03:22:03;;;;;;;0.10;0.10;;;5.10;99.90;;;;;;4928710;29;20761;-67
2022/01/05 03:24:30;;;;;;;0.10;0.10;;;5.10;99.90;;;;;;4933032;29;20614;-67
2022/01/05 03:26:57;;;;;;;0.10;0.10;;;5.10;99.90;;;;;;4922784;29;20698;-66
2022/01/05 03:29:24;;;;;;;0.10;0.10;;;5.00;99.90;;;;;;4930822;29;21056;-67
2022/01/05 03:31:53;;;;;;;0.10;0.10;;;5.00;99.90;;;;;;4928933;29;20669;-66
2022/01/05 03:34:20;;;;;;;0.10;0.10;;;5.00;99.90;;;;;;4929218;29;20635;-67
2022/01/05 03:36:48;;;;;;;0.10;0.10;;;5.00;99.90;;;;;;4930979;29;20611;-67
2022/01/05 03:39:15;;;;;;;0.10;0.10;;;5.00;99.90;;;;;;4924717;29;20734;-67
2022/01/05 03:41:42;;;;;;;0.10;0.10;;;5.00;99.90;;;;;;4926949;29;20680;-67
2022/01/05 03:44:09;;;;;;;0.10;0.10;;;5.00;99.90;;;;;;4929470;29;20653;-67
2022/01/05 03:46:37;;;;;;;0.10;0.10;;;4.90;99.90;;;;;;4929333;29;20666;-67
2022/01/05 03:49:05;;;;;;;0.10;0.10;;;4.90;99.90;;;;;;4931927;29;20680;-67
2022/01/05 03:51:32;;;;;;;0.10;0.10;;;4.90;99.90;;;;;;4928930;29;20661;-67
2022/01/05 03:53:59;;;;;;;0.10;0.10;;;4.90;99.90;;;;;;4930541;29;20634;-67
2022/01/05 03:56:26;;;;;;;0.10;0.10;;;4.90;99.90;;;;;;4923629;29;20686;-67
2022/01/05 03:58:53;;;;;;;0.10;0.10;;;4.80;99.90;;;;;;4933964;29;20690;-67
2022/01/05 04:01:21;;;;;;;0.10;0.10;;;4.90;99.90;;;;;;4922820;29;20669;-67
2022/01/05 04:03:48;;;;;;;0.10;0.10;;;4.80;99.90;;;;;;4929700;29;20635;-67
2022/01/05 04:06:17;;;;;;;0.10;0.10;;;4.80;99.90;;;;;;4927645;29;20773;-67
2022/01/05 04:08:44;;;;;;;0.10;0.10;;;4.80;99.90;;;;;;4927908;29;20631;-67
2022/01/05 04:11:11;;;;;;;0.10;0.10;;;4.80;99.90;;;;;;4927052;29;20725;-67
2022/01/05 04:13:38;;;;;;;0.10;0.10;;;4.80;99.90;;;;;;4928283;29;20663;-67
2022/01/05 04:16:06;;;;;;;0.00;0.00;;;4.80;99.90;;;;;;4929472;29;21152;-67
2022/01/05 04:18:32;;;;;;;0.10;0.10;;;4.70;99.90;;;;;;4928757;29;20703;-67
2022/01/05 04:20:59;;;;;;;0.10;0.10;;;4.70;99.90;;;;;;4932489;29;20721;-67
2022/01/05 04:23:28;;;;;;;0.10;0.10;;;4.70;99.90;;;;;;4927670;29;20655;-67
2022/01/05 04:25:55;;;;;;;0.10;0.10;;;4.70;99.90;;;;;;4925710;29;21264;-67
2022/01/05 04:28:22;;;;;;;0.10;0.10;;;4.70;99.90;;;;;;4928081;29;20638;-68
2022/01/05 04:30:49;;;;;;;0.10;0.10;;;4.70;99.90;;;;;;4931688;28;20627;-68
2022/01/05 04:33:16;;;;;;;0.10;0.10;;;4.60;99.90;;;;;;4928211;29;21281;-67
2022/01/05 04:35:43;;;;;;;0.10;0.10;;;4.60;99.90;;;;;;4927751;29;20631;-67
2022/01/05 04:38:10;;;;;;;0.10;0.10;;;;;;;;;;4926932;29;20690;-67
2022/01/05 04:40:39;;;;;;;0.10;0.10;;;4.70;99.90;;;;;;4928994;29;20642;-67
2022/01/05 04:43:06;;;;;;;0.10;0.10;;;4.60;99.90;;;;;;4928270;29;20655;-67
2022/01/05 04:45:32;;;;;;;0.10;0.10;;;4.60;99.90;;;;;;4931823;28;20730;-67
2022/01/05 04:47:59;;;;;;;0.10;0.10;;;4.60;99.90;;;;;;4928707;29;20638;-67
2022/01/05 04:50:26;;;;;;;0.10;0.10;;;4.60;99.90;;;;;;4930168;29;20615;-67
2022/01/05 04:52:53;;;;;;;0.10;0.10;;;4.60;99.90;;;;;;4932681;28;20679;-66
2022/01/05 04:55:20;;;;;;;0.10;0.10;;;4.60;99.90;;;;;;4928918;29;20615;-67
2022/01/05 04:57:49;;;;;;;0.10;0.10;;;4.60;99.90;;;;;;4927179;29;20661;-67
2022/01/05 05:00:16;;;;;;;0.10;0.10;;;4.60;99.90;;;;;;4930971;29;20631;-67
2022/01/05 05:02:43;;;;;;;0.10;0.10;;;4.60;99.90;;;;;;4930650;28;20661;-67
2022/01/05 05:05:10;;;;;;;0.10;0.10;;;4.50;99.90;;;;;;4925980;29;20722;-67
2022/01/05 05:07:36;;;;;;;0.10;0.10;;;4.50;99.90;;;;;;4925077;29;20759;-67
2022/01/05 05:10:04;;;;;;;0.10;0.10;;;4.50;99.90;;;;;;4928094;29;21350;-67
2022/01/05 05:12:31;;;;;;;0.10;0.10;;;4.50;99.90;;;;;;4923579;29;20662;-67
2022/01/05 05:14:59;;;;;;;0.10;0.10;;;4.50;99.90;;;;;;4924713;29;20631;-66
2022/01/05 05:17:26;;;;;;;0.10;0.10;;;4.50;99.90;;;;;;4926839;29;20655;-67
2022/01/05 05:19:53;;;;;;;0.10;0.10;;;4.50;99.90;;;;;;4927818;29;20642;-67
2022/01/05 05:22:20;;;;;;;0.10;0.10;;;4.50;99.90;;;;;;4928439;28;20638;-67
2022/01/05 05:24:47;;;;;;;0.10;0.10;;;4.50;99.90;;;;;;4926512;29;20623;-67
2022/01/05 05:27:14;;;;;;;0.10;0.10;;;4.50;99.90;;;;;;4927735;28;20659;-66
2022/01/05 05:29:41;;;;;;;0.10;0.10;;;4.40;99.90;;;;;;4924390;29;20642;-68
2022/01/05 05:32:10;;;;;;;0.10;0.10;;;4.40;99.90;;;;;;4922385;29;20666;-68
2022/01/05 05:34:37;;;;;;;0.10;0.10;;;4.40;99.90;;;;;;4927891;29;20631;-68
2022/01/05 05:37:05;;;;;;;0.10;0.10;;;4.40;99.90;;;;;;4929061;29;20649;-67
2022/01/05 05:39:33;;;;;;;0.10;0.10;;;4.40;99.90;;;;;;4923731;29;20649;-67
2022/01/05 05:42:00;;;;;;;0.10;0.10;;;4.40;99.90;;;;;;4927070;29;20669;-67
2022/01/05 05:44:27;;;;;;;0.10;0.10;;;4.40;99.90;;;;;;4929537;29;20643;-67
2022/01/05 05:46:54;;;;;;;0.10;0.10;;;4.30;99.90;;;;;;4929688;29;20683;-67
2022/01/05 05:49:22;;;;;;;0.10;0.10;;;4.30;99.90;;;;;;4929576;29;20623;-67
2022/01/05 05:51:49;;;;;;;0.10;0.10;;;4.30;99.90;;;;;;4929703;29;20692;-67
2022/01/05 05:54:16;;;;;;;0.10;0.10;;;4.30;99.90;;;;;;4925235;29;20638;-67
2022/01/05 05:56:43;;;;;;;0.10;0.10;;;4.30;99.90;;;;;;4924285;29;21235;-67
2022/01/05 05:59:10;;;;;;;0.10;0.10;;;4.30;99.90;;;;;;4929519;29;20619;-68
2022/01/05 06:01:37;;;;;;;0.10;0.10;;;4.30;99.90;;;;;;4925724;29;20655;-67
2022/01/05 06:04:04;;;;;;;0.10;0.10;;;4.30;99.90;;;;;;4930384;28;20698;-67
2022/01/05 06:06:32;;;;;;;0.10;0.10;;;4.30;99.90;;;;;;4930175;29;20686;-67
2022/01/05 06:08:59;;;;;;;0.10;0.10;;;4.20;99.90;;;;;;4929903;29;20673;-67
2022/01/05 06:11:26;;;;;;;0.10;0.10;;;4.20;99.90;;;;;;4932188;29;20689;-68
2022/01/05 06:13:54;;;;;;;0.10;0.10;;;4.20;99.90;;;;;;4930163;29;20702;-67
2022/01/05 06:16:22;;;;;;;0.10;0.10;;;4.20;99.90;;;;;;4930574;29;20635;-67
2022/01/05 06:18:49;;;;;;;0.10;0.10;;;4.10;99.90;;;;;;4933284;28;20676;-68
2022/01/05 06:21:16;;;;;;;0.10;0.10;;;4.10;99.90;;;;;;4931588;29;20717;-67
2022/01/05 06:23:44;;;;;;;0.10;0.10;;;4.10;99.90;;;;;;4932638;29;21188;-67
2022/01/05 06:26:11;;;;;;;0.10;0.10;;;4.10;99.90;;;;;;4931234;29;20682;-67
2022/01/05 06:28:38;;;;;;;0.10;0.10;;;4.10;99.90;;;;;;4928268;29;20626;-67
2022/01/05 06:31:05;;;;;;;0.10;0.10;;;4.10;99.90;;;;;;4932922;29;20642;-68
2022/01/05 06:33:32;;;;;;;0.10;0.10;;;4.10;99.90;;;;;;4932068;29;20630;-69
2022/01/05 06:35:59;;;;;;;0.20;0.20;;;4.10;99.90;;;;;;4934532;28;20641;-67
2022/01/05 06:38:26;;;;;;;0.10;0.10;;;4.10;99.90;;;;;;4934318;29;20634;-67
2022/01/05 06:40:54;;;;;;;0.10;0.10;;;4.10;99.90;;;;;;4931455;29;20722;-67
2022/01/05 06:43:21;;;;;;;0.10;0.10;;;4.10;99.90;;;;;;4927268;29;20652;-67
2022/01/05 06:45:48;;;;;;;0.10;0.10;;;4.10;99.90;;;;;;4929050;29;20686;-67
2022/01/05 06:48:15;;;;;;;0.10;0.10;;;4.10;99.90;;;;;;4931890;29;20618;-68
2022/01/05 06:50:42;;;;;;;0.10;0.10;;;4.10;99.90;;;;;;4934593;29;20619;-68
2022/01/05 06:53:09;;;;;;;0.10;0.10;;;4.10;99.90;;;;;;4931391;29;20631;-68
2022/01/05 06:55:36;;;;;;;0.10;0.10;;;4.10;99.90;;;;;;4929411;29;20623;-68
2022/01/05 06:58:05;;;;;;;0.10;0.10;;;4.00;99.90;;;;;;4924157;29;20619;-67
2022/01/05 07:00:32;;;;;;;0.10;0.10;;;4.00;99.90;;;;;;4930871;29;20639;-67
2022/01/05 07:02:59;;;;;;;0.10;0.10;;;;;;;;;;4931067;29;20658;-68
2022/01/05 07:05:27;;;;;;;0.10;0.10;;;;;;;;;;4929690;29;20626;-68
2022/01/05 07:07:54;;;;;;;0.10;0.10;;;;;;;;;;4925127;29;20669;-67
2022/01/05 07:10:21;;;;;;;0.10;0.10;;;;;;;;;;4925948;29;20631;-67
2022/01/05 07:12:49;;;;;;;0.10;0.10;;;;;;;;;;4927496;29;21310;-67
2022/01/05 07:15:18;;;;;;;0.10;0.10;;;3.80;99.90;;;;;;4925937;29;21041;-66
2022/01/05 07:17:45;;;;;;;0.10;0.10;;;3.70;99.90;;;;;;4928290;29;20643;-67
2022/01/05 07:20:13;;;;;;;0.10;0.10;;;3.70;99.90;;;;;;4931004;29;20611;-67
2022/01/05 07:22:40;;;;;;;0.10;0.10;;;3.70;99.90;;;;;;4932420;28;20694;-67
2022/01/05 07:25:08;;;;;;;0.20;0.20;;;3.60;99.90;;;;;;4929273;29;20638;-67
2022/01/05 07:27:35;;;;;;;0.10;0.10;;;;;;;;;;4933266;28;20663;-68
2022/01/05 07:30:04;;;;;;;0.10;0.10;;;;;;;;;;4929063;29;20623;-67
2022/01/05 07:32:32;;;;;;;0.10;0.10;;;3.60;99.90;;;;;;4929715;29;20745;-67
2022/01/05 07:35:00;;;;;;;0.10;0.10;;;3.50;99.90;;;;;;4929530;29;20642;-68
2022/01/05 07:37:27;;;;;;;0.10;0.10;;;3.40;99.90;;;;;;4930739;29;20607;-68
2022/01/05 07:39:54;;;;;;;0.10;0.10;;;3.40;99.90;;;;;;4929259;29;20698;-68
2022/01/05 07:42:21;;;;;;;0.10;0.10;;;3.40;99.90;;;;;;4930179;29;20658;-68
2022/01/05 07:44:48;;;;;;;0.10;0.10;;;3.40;99.90;;;;;;4934978;28;20625;-68
2022/01/05 07:47:15;;;;;;;0.10;0.10;;;3.30;99.90;;;;;;4931676;29;20666;-68
2022/01/05 07:49:44;;;;;;;0.10;0.10;;;3.30;99.90;;;;;;4926492;29;20646;-68
2022/01/05 07:52:11;;;;;;;0.10;0.10;;;3.30;99.90;;;;;;4929684;29;20663;-67
2022/01/05 07:54:38;;;;;;;0.10;0.10;;;3.30;99.90;;;;;;4932363;29;20631;-68
2022/01/05 07:57:05;;;;;;;0.10;0.10;;;3.20;99.90;;;;;;4929551;29;20646;-68
2022/01/05 07:59:32;;;;;;;0.10;0.10;;;;;;;;;;4934178;28;21192;-68
2022/01/05 08:01:59;;;;;;;0.10;0.10;;;3.20;99.90;;;;;;4933212;28;20658;-68
2022/01/05 08:04:26;;;;;;;0.10;0.10;;;3.20;99.90;;;;;;4931959;28;20635;-68
2022/01/05 08:06:55;;;;;;;0.20;0.20;;;3.20;99.90;;;;;;4929084;29;20742;-68
2022/01/05 08:09:22;;;;;;;0.10;0.10;;;3.20;99.90;;;;;;4930087;29;20616;-68
2022/01/05 08:11:48;;;;;;;0.20;0.20;;;3.20;99.90;;;;;;4930017;29;20662;-68
2022/01/05 08:14:15;;;;;;;0.10;0.10;;;3.20;99.90;;;;;;4928292;29;20631;-68
2022/01/05 08:16:43;;;;;;;0.10;0.10;;;3.20;99.90;;;;;;4925232;29;20687;-68
2022/01/05 08:19:10;;;;;;;0.10;0.10;;;3.20;99.90;;;;;;4928309;29;20635;-67
2022/01/05 08:21:36;;;;;;;0.10;0.10;;;3.20;99.90;;;;;;4927387;29;20651;-67
2022/01/05 08:24:06;;;;;;;0.10;0.10;;;3.30;99.90;;;;;;4925140;29;20627;-68
2022/01/05 08:26:33;;;;;;;0.10;0.10;;;3.30;99.90;;;;;;4927508;29;20635;-67
2022/01/05 08:29:00;;;;;;;0.10;0.10;;;3.30;99.90;;;;;;4928354;29;20686;-67
2022/01/05 08:31:28;;;;;;;0.10;0.10;;;3.50;99.90;;;;;;4925859;29;20686;-67
2022/01/05 08:33:56;;;;;;;0.10;0.10;;;3.60;99.90;;;;;;4922744;29;20635;-67
2022/01/05 08:36:24;;;;;;;0.10;0.10;;;3.70;99.90;;;;;;4926832;29;20743;-67
2022/01/05 08:38:51;;;;;;;0.10;0.10;;;3.80;99.90;;;;;;4924568;29;20673;-67
2022/01/05 08:41:19;;;;;;;0.10;0.10;;;4.00;99.90;;;;;;4929111;29;20694;-68
2022/01/05 08:43:47;;;;;;;0.10;0.10;;;4.10;99.90;;;;;;4927364;29;20658;-68
2022/01/05 08:46:16;;;;;;;0.10;0.10;;;4.10;99.90;;;;;;4934192;28;20634;-68
2022/01/05 08:48:43;;;;;;;0.10;0.10;;;4.20;99.90;;;;;;4939466;28;20666;-67
2022/01/05 08:51:12;;;;;;;0.10;0.10;;;4.30;99.90;;;;;;4936098;28;20663;-67
2022/01/05 08:53:40;;;;;;;0.10;0.10;;;4.30;99.90;;;;;;4933671;28;20639;-68
2022/01/05 08:56:08;;;;;;;0.10;0.10;;;4.40;99.90;;;;;;4924886;29;20670;-68
2022/01/05 08:58:37;;;;;;;0.10;0.10;;;4.40;99.90;;;;;;4939548;28;20641;-68
2022/01/05 09:01:04;;;;;;;0.20;0.20;;;4.50;99.90;;;;;;4928416;29;20651;-68
2022/01/05 09:03:31;;;;;;;0.10;0.10;;;4.50;99.90;;;;;;4939802;28;20627;-68
2022/01/05 09:06:00;;;;;;;0.10;0.10;;;4.50;99.90;;;;;;4942748;28;20718;-67
2022/01/05 09:08:27;;;;;;;0.10;0.10;;;4.50;99.90;;;;;;4926617;29;20658;-68
2022/01/05 09:10:54;;;;;;;0.10;0.10;;;4.60;99.90;;;;;;4923781;28;20646;-67
2022/01/05 09:13:21;;;;;;;0.10;0.10;;;4.60;99.90;;;;;;4925258;29;20634;-67
2022/01/05 09:15:49;;;;;;;0.10;0.10;;;4.60;99.90;;;;;;4935109;28;20694;-68
2022/01/05 09:18:16;;;;;;;0.10;0.10;;;4.70;99.90;;;;;;4932130;28;20713;-68
2022/01/05 09:20:43;;;;;;;0.10;0.10;;;4.80;99.90;;;;;;4926476;29;20636;-68
2022/01/05 09:23:09;;;;;;;0.10;0.10;;;4.80;99.90;;;;;;4937797;28;20646;-68
2022/01/05 09:25:36;;;;;;;0.10;0.10;;;4.90;99.90;;;;;;4932950;28;20631;-68
2022/01/05 09:28:04;;;;;;;0.10;0.10;;;4.90;99.90;;;;;;4924850;29;20655;-67
2022/01/05 09:30:31;;;;;;;0.10;0.10;;;4.90;99.90;;;;;;4936075;28;20630;-68
2022/01/05 09:33:00;;;;;;;0.10;0.10;;;4.90;99.90;;;;;;4932500;28;20678;-68
2022/01/05 09:35:27;;;;;;;0.10;0.10;;;5.00;99.90;;;;;;4937739;28;20761;-68
2022/01/05 09:38:07;;;;;;;0.10;0.10;;;5.10;99.90;;;;;;4916733;29;20631;-67
2022/01/05 09:43:18;;;;;;;0.10;0.10;;;5.10;99.90;;;;;;4942600;28;20627;-68
2022/01/05 09:45:59;;;;;;;0.10;0.10;;;5.20;99.90;;;;;;4927377;29;20711;-68
2022/01/05 09:48:44;;;;;;;0.10;0.10;;;5.20;99.90;;;;;;4922885;29;20710;-68
2022/01/05 09:51:14;;;;;;;0.10;0.10;;;5.30;99.90;;;;;;4924600;29;20698;-68
2022/01/05 09:53:41;;;;;;;0.10;0.10;;;5.20;99.90;;;;;;4924344;29;20631;-67
2022/01/05 09:56:08;;;;;;;0.10;0.10;;;5.30;99.90;;;;;;4928257;29;20691;-68
2022/01/05 09:58:42;;;;;;;0.10;0.10;;;5.30;99.90;;;;;;4936888;29;20654;-68
2022/01/05 10:01:09;;;;;;;0.00;0.00;;;5.30;99.90;;;;;;4929279;28;20762;-68
2022/01/05 10:03:38;;;;;;;0.10;0.10;;;5.30;99.90;;;;;;4931812;29;20663;-67
2022/01/05 10:06:05;;;;;;;0.10;0.10;;;5.30;99.90;;;;;;4926974;29;20607;-69
2022/01/05 10:08:32;;;;;;;0.10;0.10;;;5.40;99.90;;;;;;4923992;29;20652;-68
2022/01/05 10:14:50;;;;;;;0.10;0.10;;;5.50;99.90;;;;;;4895993;29;20630;-69
2022/01/05 10:17:24;;;;;;;0.10;0.10;;;5.50;99.90;;;;;;4929451;28;20655;-68
2022/01/05 10:19:59;;;;;;;0.10;0.10;;;5.50;99.90;;;;;;4921138;29;20650;-68
2022/01/05 10:22:39;;;;;;;0.20;0.20;;;5.50;99.90;;;;;;4931639;29;20663;-68
2022/01/05 10:28:35;;;;;;;0.10;0.10;;;5.60;99.90;;;;;;4909840;28;20654;-68
2022/01/05 10:31:01;;;;;;;0.10;0.10;;;5.60;99.90;;;;;;4928675;29;20651;-69
2022/01/05 10:33:29;;;;;;;0.10;0.10;;;5.60;99.90;;;;;;4919840;28;20670;-66
2022/01/05 10:35:59;;;;;;;0.10;0.10;;;5.60;99.90;;;;;;4926304;29;21601;-68
2022/01/05 10:42:27;;;;;;;0.10;0.10;;;5.60;99.90;;;;;;4914988;29;20662;-69
2022/01/05 10:45:05;;;;;;;0.10;0.10;;;5.70;99.90;;;;;;4908445;28;20642;-68
2022/01/05 10:47:33;;;;;;;0.10;0.10;;;5.70;99.90;;;;;;4925506;29;20737;-68
2022/01/05 10:50:11;;;;;;;0.10;0.10;;;5.90;99.90;;;;;;4929913;29;20622;-68
2022/01/05 10:53:05;;;;;;;0.10;0.10;;;6.10;99.90;;;;;;4927328;29;20594;-68
2022/01/05 10:55:38;;;;;;;0.10;0.10;;;6.40;99.90;;;;;;4929610;29;20629;-67
2022/01/05 10:58:07;;;;;;;0.10;0.10;;;6.50;99.90;;;;;;4928288;29;20623;-67
2022/01/05 11:00:38;;;;;;;0.10;0.10;;;6.90;99.90;;;;;;4928800;29;20672;-67
2022/01/05 11:03:22;;;;;;;0.10;0.10;;;6.80;99.90;;;;;;4930044;29;21002;-67
2022/01/05 11:06:04;;;;;;;0.10;0.10;;;7.00;99.90;;;;;;4929930;28;20626;-67
2022/01/05 11:08:33;;;;;;;0.10;0.10;;;7.20;99.90;;;;;;4927151;29;20663;-67
2022/01/05 11:11:00;;;;;;;0.10;0.10;;;7.30;99.90;;;;;;4930786;29;21347;-68
2022/01/05 11:13:28;;;;;;;0.10;0.10;;;7.30;99.90;;;;;;4931616;29;20619;-68
2022/01/05 11:15:57;;;;;;;0.10;0.10;;;7.30;99.90;;;;;;4931537;29;20722;-68
2022/01/05 11:18:30;;;;;;;0.10;0.10;;;7.30;99.90;;;;;;4930904;29;20623;-68
2022/01/05 11:21:01;;;;;;;0.10;0.10;;;7.30;99.90;;;;;;4931077;29;20769;-68
2022/01/05 11:23:30;;;;;;;0.10;0.10;;;7.20;99.90;;;;;;4931733;29;20657;-67
2022/01/05 11:26:00;;;;;;;0.10;0.10;;;7.20;99.90;;;;;;4928385;29;20670;-68
2022/01/05 11:28:30;;;;;;;0.10;0.10;;;7.10;99.90;;;;;;4929281;29;20666;-68
2022/01/05 11:30:58;;;;;;;0.10;0.10;;;7.00;99.90;;;;;;4927121;29;20631;-68
2022/01/05 11:33:26;;;;;;;0.10;0.10;;;6.80;99.90;;;;;;4930481;29;20714;-68
2022/01/05 11:35:53;;;;;;;0.10;0.10;;;6.70;99.90;;;;;;4933151;29;20690;-68
2022/01/05 11:38:20;;;;;;;0.10;0.10;;;6.70;99.90;;;;;;4928634;29;21000;-68
2022/01/05 11:40:51;;;;;;;0.10;0.10;;;6.70;99.90;;;;;;4932336;29;20649;-67
2022/01/05 11:43:27;;;;;;;0.10;0.10;;;6.60;99.90;;;;;;4946050;28;20730;-67
2022/01/05 11:45:54;;;;;;;0.10;0.10;;;6.40;99.90;;;;;;4931334;29;20981;-68
2022/01/05 11:48:24;;;;;;;0.10;0.10;;;6.30;99.90;;;;;;4929539;29;20650;-67
2022/01/05 11:50:52;;;;;;;0.10;0.10;;;6.20;99.90;;;;;;4931156;29;20607;-68
2022/01/05 11:53:35;;;;;;;0.10;0.10;;;6.20;99.90;;;;;;4930853;29;20631;-68
2022/01/05 11:56:11;;;;;;;0.10;0.10;;;6.20;99.90;;;;;;4932096;29;20628;-67
2022/01/05 11:58:59;;;;;;;0.10;0.10;;;6.20;99.90;;;;;;4933109;28;21135;-68
2022/01/05 12:01:30;;;;;;;0.10;0.10;;;6.40;99.90;;;;;;4927516;29;20663;-67
2022/01/05 12:04:19;;;;;;;0.10;0.10;;;6.50;99.90;;;;;;4929129;29;20738;-67
2022/01/05 12:07:03;;;;;;;0.10;0.10;;;6.40;99.90;;;;;;4932717;29;20631;-68
2022/01/05 12:09:32;;;;;;;0.10;0.10;;;6.30;99.90;;;;;;4927430;29;20694;-68
2022/01/05 12:12:03;;;;;;;0.10;0.10;;;6.20;99.90;;;;;;4926553;29;20673;-68
2022/01/05 12:14:47;;;;;;;0.10;0.10;;;6.10;99.90;;;;;;4923451;29;20682;-67
2022/01/05 12:17:17;;;;;;;0.10;0.10;;;6.00;99.90;;;;;;4928660;29;20642;-68
2022/01/05 12:20:07;;;;;;;0.10;0.10;;;5.90;99.90;;;;;;4929151;29;21169;-68
2022/01/05 12:22:35;;;;;;;0.10;0.10;;;5.80;99.90;;;;;;4929614;29;20666;-68
2022/01/05 12:25:23;;;;;;;0.10;0.10;;;5.70;99.90;;;;;;4930344;29;20607;-68
2022/01/05 12:27:58;;;;;;;0.10;0.10;;;5.60;99.90;;;;;;4929797;29;20619;-68
2022/01/05 12:30:39;;;;;;;0.10;0.10;;;5.60;99.90;;;;;;4924918;29;20634;-68
2022/01/05 12:33:13;;;;;;;0.10;0.10;;;5.60;99.90;;;;;;4943558;28;20638;-68
2022/01/05 12:35:46;;;;;;;0.10;0.10;;;5.50;99.90;;;;;;4927865;29;20627;-68
2022/01/05 12:38:34;;;;;;;0.10;0.10;;;5.40;99.90;;;;;;4927254;29;20751;-68
2022/01/05 12:41:27;;;;;;;0.10;0.10;;;5.40;99.90;;;;;;4930068;29;20702;-68
2022/01/05 12:43:58;;;;;;;0.10;0.10;;;5.40;99.90;;;;;;4930247;29;20756;-68
2022/01/05 12:46:39;;;;;;;0.10;0.10;;;5.30;99.90;;;;;;4929511;29;20832;-68
2022/01/05 12:49:12;;;;;;;0.10;0.10;;;5.20;99.90;;;;;;4926538;29;21252;-68
2022/01/05 12:51:49;;;;;;;0.10;0.10;;;5.20;99.90;;;;;;4925698;29;20674;-68
2022/01/05 12:54:19;;;;;;;0.10;0.10;;;5.20;99.90;;;;;;4928043;29;20621;-69
2022/01/05 12:56:51;;;;;;;0.10;0.10;;;5.10;99.90;;;;;;4944341;28;20735;-69
2022/01/05 12:59:21;;;;;;;0.10;0.10;;;5.10;99.90;;;;;;4930163;29;20658;-68
2022/01/05 13:01:52;;;;;;;0.10;0.10;;;5.10;99.90;;;;;;4931305;29;20667;-68
2022/01/05 13:04:23;;;;;;;0.10;0.10;;;5.00;99.90;;;;;;4927424;29;20654;-68
2022/01/05 13:06:50;;;;;;;0.10;0.10;;;5.00;99.90;;;;;;4928458;29;21048;-68
2022/01/05 13:09:29;;;;;;;0.00;0.00;;;4.90;99.90;;;;;;4928124;29;21307;-68
2022/01/05 13:11:59;;;;;;;0.10;0.10;;;4.80;99.90;;;;;;4930657;29;20715;-68
2022/01/05 13:14:31;;;;;;;0.10;0.10;;;4.70;99.90;;;;;;4921299;29;21071;-68
2022/01/05 13:17:02;;;;;;;0.10;0.10;;;4.60;99.90;;;;;;4929197;29;20676;-68
2022/01/05 13:19:33;;;;;;;0.10;0.10;;;4.50;99.90;;;;;;4927870;29;20740;-68
2022/01/05 13:22:04;;;;;;;0.10;0.10;;;4.40;99.90;;;;;;4927992;29;20755;-68
2022/01/05 13:24:51;;;;;;;0.10;0.10;;;4.30;99.90;;;;;;4940900;28;20638;-68
2022/01/05 13:27:20;;;;;;;0.10;0.10;;;4.30;99.90;;;;;;4925055;29;20631;-68
2022/01/05 13:29:47;;;;;;;0.10;0.10;;;4.30;99.90;;;;;;4928588;29;20749;-68
2022/01/05 13:32:18;;;;;;;0.10;0.10;;;4.30;99.90;;;;;;4927263;29;20745;-68